Time,TemperatureF,DewpointF,PressureIn,WindDirection,WindDirectionDegrees,WindSpeedMPH,WindSpeedGustMPH,Humidity,HourlyPrecipIn,Conditions,Clouds,dailyrainin,SoftwareType,DateUTC
2013-09-06 00:00:00,73.9,71.7,30.06,West,259,0.0,0.0,93,0.00,,,0.00,WeatherTracker,2013-09-06 05:00:00,
2013-09-06 00:05:00,73.9,71.7,30.06,West,259,0.0,0.0,93,0.00,,,0.00,WeatherTracker,2013-09-06 05:05:00,
2013-09-06 00:15:00,73.7,71.5,30.07,West,259,0.0,0.0,93,0.00,,,0.00,WeatherTracker,2013-09-06 05:15:00,
2013-09-06 00:25:00,73.5,71.7,30.06,West,259,0.0,0.0,94,0.00,,,0.00,WeatherTracker,2013-09-06 05:25:00,
2013-09-06 00:30:00,73.4,71.6,30.06,West,259,0.0,0.0,94,0.00,,,0.00,WeatherTracker,2013-09-06 05:30:00,
2013-09-06 00:35:00,73.3,71.5,30.06,West,259,0.0,0.0,94,0.00,,,0.00,WeatherTracker,2013-09-06 05:35:00,
2013-09-06 00:40:00,73.3,71.5,30.06,West,259,0.0,0.0,94,0.00,,,0.00,WeatherTracker,2013-09-06 05:40:00,
2013-09-06 00:45:00,73.2,71.4,30.06,West,259,0.0,0.0,94,0.00,,,0.00,WeatherTracker,2013-09-06 05:45:00,
2013-09-06 00:50:00,73.1,71.3,30.06,West,259,0.0,0.0,94,0.00,,,0.00,WeatherTracker,2013-09-06 05:50:00,
2013-09-06 01:00:00,73.0,71.2,30.06,West,259,0.0,0.0,94,0.00,,,0.00,WeatherTracker,2013-09-06 06:00:00,
2013-09-06 01:10:00,72.8,71.0,30.06,West,259,0.0,0.0,94,0.00,,,0.00,WeatherTracker,2013-09-06 06:10:00,
2013-09-06 01:15:00,72.8,71.0,30.06,West,259,0.0,0.0,94,0.00,,,0.00,WeatherTracker,2013-09-06 06:15:00,
2013-09-06 01:25:00,72.7,70.9,30.05,West,259,0.0,0.0,94,0.00,,,0.00,WeatherTracker,2013-09-06 06:25:00,
2013-09-06 01:35:00,72.7,71.2,30.05,West,259,0.0,0.0,95,0.00,,,0.00,WeatherTracker,2013-09-06 06:35:00,
2013-09-06 01:40:00,72.7,71.2,30.05,West,259,0.0,0.0,95,0.00,,,0.00,WeatherTracker,2013-09-06 06:40:00,
2013-09-06 01:50:00,72.6,71.1,30.05,West,259,0.0,0.0,95,0.00,,,0.00,WeatherTracker,2013-09-06 06:50:00,
2013-09-06 01:55:00,72.5,71.0,30.05,West,259,0.0,0.0,95,0.00,,,0.00,WeatherTracker,2013-09-06 06:55:00,
2013-09-06 02:05:00,72.3,70.8,30.05,West,259,0.0,0.0,95,0.00,,,0.00,WeatherTracker,2013-09-06 07:05:00,
2013-09-06 02:10:00,72.2,70.7,30.05,West,259,0.0,0.0,95,0.00,,,0.00,WeatherTracker,2013-09-06 07:10:00,
2013-09-06 02:15:00,72.1,70.6,30.05,West,259,0.0,0.0,95,0.00,,,0.00,WeatherTracker,2013-09-06 07:15:00,
2013-09-06 02:25:00,71.9,70.4,30.04,West,259,0.0,0.0,95,0.00,,,0.00,WeatherTracker,2013-09-06 07:25:00,
2013-09-06 02:30:00,71.8,70.3,30.04,West,259,0.0,0.0,95,0.00,,,0.00,WeatherTracker,2013-09-06 07:30:00,
2013-09-06 02:40:00,71.6,70.1,30.04,West,259,0.0,0.0,95,0.00,,,0.00,WeatherTracker,2013-09-06 07:40:00,
2013-09-06 02:45:00,71.5,70.0,30.04,West,259,0.0,0.0,95,0.00,,,0.00,WeatherTracker,2013-09-06 07:45:00,
2013-09-06 02:55:00,71.3,69.8,30.04,West,259,0.0,0.0,95,0.00,,,0.00,WeatherTracker,2013-09-06 07:55:00,
2013-09-06 03:00:00,71.3,69.8,30.04,West,259,0.0,0.0,95,0.00,,,0.00,WeatherTracker,2013-09-06 08:00:00,
2013-09-06 03:05:00,71.3,69.8,30.04,West,259,0.0,0.0,95,0.00,,,0.00,WeatherTracker,2013-09-06 08:05:00,
2013-09-06 03:15:00,71.3,69.8,30.03,West,259,0.0,0.0,95,0.00,,,0.00,WeatherTracker,2013-09-06 08:15:00,
2013-09-06 03:25:00,71.4,70.2,30.03,West,261,0.0,0.0,96,0.00,,,0.00,WeatherTracker,2013-09-06 08:25:00,
2013-09-06 03:30:00,71.3,70.1,30.03,West,264,0.0,0.0,96,0.00,,,0.00,WeatherTracker,2013-09-06 08:30:00,
2013-09-06 03:35:00,71.2,70.0,30.03,West,264,0.0,0.0,96,0.00,,,0.00,WeatherTracker,2013-09-06 08:35:00,
2013-09-06 03:40:00,71.1,69.9,30.03,West,275,0.0,0.0,96,0.00,,,0.00,WeatherTracker,2013-09-06 08:40:00,
2013-09-06 03:50:00,71.0,69.8,30.03,West,275,0.0,0.0,96,0.00,,,0.00,WeatherTracker,2013-09-06 08:50:00,
2013-09-06 03:55:00,71.0,69.8,30.02,West,275,0.0,0.0,96,0.00,,,0.00,WeatherTracker,2013-09-06 08:55:00,
2013-09-06 04:00:00,71.0,69.8,30.03,West,275,0.0,0.0,96,0.00,,,0.00,WeatherTracker,2013-09-06 09:00:00,
2013-09-06 04:10:00,71.0,69.8,30.03,West,275,0.0,0.0,96,0.00,,,0.00,WeatherTracker,2013-09-06 09:10:00,
2013-09-06 04:15:00,71.0,69.8,30.03,West,275,0.0,0.0,96,0.00,,,0.00,WeatherTracker,2013-09-06 09:15:00,
2013-09-06 04:25:00,70.8,69.6,30.04,West,275,0.0,0.0,96,0.00,,,0.00,WeatherTracker,2013-09-06 09:25:00,
2013-09-06 04:35:00,70.6,69.4,30.04,West,275,0.0,0.0,96,0.00,,,0.00,WeatherTracker,2013-09-06 09:35:00,
2013-09-06 04:45:00,70.4,69.2,30.04,West,275,0.0,0.0,96,0.00,,,0.00,WeatherTracker,2013-09-06 09:45:00,
2013-09-06 04:55:00,70.4,69.2,30.03,West,275,0.0,0.0,96,0.00,,,0.00,WeatherTracker,2013-09-06 09:55:00,
2013-09-06 05:00:00,70.4,69.2,30.03,West,275,0.0,0.0,96,0.00,,,0.00,WeatherTracker,2013-09-06 10:00:00,
2013-09-06 05:05:00,70.3,69.1,30.03,West,275,0.0,0.0,96,0.00,,,0.00,WeatherTracker,2013-09-06 10:05:00,
2013-09-06 05:10:00,70.1,68.9,30.03,West,275,0.0,0.0,96,0.00,,,0.00,WeatherTracker,2013-09-06 10:10:00,
2013-09-06 05:20:00,69.9,68.7,30.03,West,275,0.0,0.0,96,0.00,,,0.00,WeatherTracker,2013-09-06 10:20:00,
2013-09-06 05:25:00,69.8,68.6,30.04,West,275,0.0,0.0,96,0.00,,,0.00,WeatherTracker,2013-09-06 10:25:00,
2013-09-06 05:35:00,69.6,68.4,30.04,West,275,0.0,0.0,96,0.00,,,0.00,WeatherTracker,2013-09-06 10:35:00,
2013-09-06 05:40:00,69.5,68.3,30.04,West,275,0.0,0.0,96,0.00,,,0.00,WeatherTracker,2013-09-06 10:40:00,
2013-09-06 05:50:00,69.4,68.2,30.04,West,275,0.0,0.0,96,0.00,,,0.00,WeatherTracker,2013-09-06 10:50:00,
2013-09-06 05:55:00,69.4,68.2,30.04,West,275,0.0,0.0,96,0.00,,,0.00,WeatherTracker,2013-09-06 10:55:00,
2013-09-06 06:05:00,69.2,68.0,30.04,West,275,0.0,0.0,96,0.00,,,0.00,WeatherTracker,2013-09-06 11:05:00,
2013-09-06 06:10:00,69.1,67.9,30.04,West,275,0.0,0.0,96,0.00,,,0.00,WeatherTracker,2013-09-06 11:10:00,
2013-09-06 06:15:00,69.0,67.8,30.04,West,275,0.0,0.0,96,0.00,,,0.00,WeatherTracker,2013-09-06 11:15:00,
2013-09-06 06:20:00,68.9,67.7,30.05,West,275,0.0,0.0,96,0.00,,,0.00,WeatherTracker,2013-09-06 11:20:00,
2013-09-06 06:25:00,68.9,67.7,30.05,West,275,0.0,0.0,96,0.00,,,0.00,WeatherTracker,2013-09-06 11:25:00,
2013-09-06 06:35:00,68.8,67.6,30.05,West,275,0.0,0.0,96,0.00,,,0.00,WeatherTracker,2013-09-06 11:35:00,
2013-09-06 06:45:00,68.9,67.7,30.05,West,275,0.0,0.0,96,0.00,,,0.00,WeatherTracker,2013-09-06 11:45:00,
2013-09-06 06:55:00,69.0,68.1,30.06,West,275,0.0,0.0,97,0.00,,,0.00,WeatherTracker,2013-09-06 11:55:00,
2013-09-06 07:00:00,69.2,68.3,30.06,West,275,0.0,0.0,97,0.00,,,0.00,WeatherTracker,2013-09-06 12:00:00,
2013-09-06 07:10:00,69.6,68.4,30.06,West,275,0.0,0.0,96,0.00,,,0.00,WeatherTracker,2013-09-06 12:10:00,
2013-09-06 07:15:00,69.9,69.0,30.06,West,275,0.0,0.0,97,0.00,,,0.00,WeatherTracker,2013-09-06 12:15:00,
2013-09-06 07:20:00,70.1,69.2,30.06,West,275,0.0,0.0,97,0.00,,,0.00,WeatherTracker,2013-09-06 12:20:00,
2013-09-06 07:30:00,70.9,70.0,30.06,West,275,0.0,0.0,97,0.00,,,0.00,WeatherTracker,2013-09-06 12:30:00,
2013-09-06 07:40:00,71.0,70.1,30.07,NNW,347,0.0,1.0,97,0.00,,,0.00,WeatherTracker,2013-09-06 12:40:00,
2013-09-06 07:50:00,71.8,70.9,30.07,North,9,0.0,3.0,97,0.00,,,0.00,WeatherTracker,2013-09-06 12:50:00,
2013-09-06 07:55:00,72.2,71.0,30.07,North,9,0.0,3.0,96,0.00,,,0.00,WeatherTracker,2013-09-06 12:55:00,
2013-09-06 08:05:00,73.0,71.5,30.07,North,9,0.0,0.0,95,0.00,,,0.00,WeatherTracker,2013-09-06 13:05:00,
2013-09-06 08:15:00,73.9,71.7,30.07,North,9,0.0,0.0,93,0.00,,,0.00,WeatherTracker,2013-09-06 13:15:00,
2013-09-06 08:20:00,74.0,71.2,30.07,North,9,0.0,0.0,91,0.00,,,0.00,WeatherTracker,2013-09-06 13:20:00,
2013-09-06 08:30:00,74.8,72.3,30.08,North,9,0.0,0.0,92,0.00,,,0.00,WeatherTracker,2013-09-06 13:30:00,
2013-09-06 08:35:00,75.3,72.2,30.08,North,9,0.0,0.0,90,0.00,,,0.00,WeatherTracker,2013-09-06 13:35:00,
2013-09-06 08:40:00,75.3,71.8,30.08,North,9,0.0,0.0,89,0.00,,,0.00,WeatherTracker,2013-09-06 13:40:00,
2013-09-06 08:45:00,75.5,72.4,30.08,North,9,0.0,0.0,90,0.00,,,0.00,WeatherTracker,2013-09-06 13:45:00,
2013-09-06 08:55:00,75.6,72.1,30.08,North,9,0.0,0.0,89,0.00,,,0.00,WeatherTracker,2013-09-06 13:55:00,
2013-09-06 09:00:00,76.2,73.0,30.08,North,9,0.0,0.0,90,0.00,,,0.00,WeatherTracker,2013-09-06 14:00:00,
2013-09-06 09:10:00,77.9,73.7,30.08,North,9,0.0,0.0,87,0.00,,,0.00,WeatherTracker,2013-09-06 14:10:00,
2013-09-06 09:15:00,79.3,74.4,30.08,North,9,0.0,0.0,85,0.00,,,0.00,WeatherTracker,2013-09-06 14:15:00,
2013-09-06 09:20:00,79.7,74.1,30.08,North,9,0.0,0.0,83,0.00,,,0.00,WeatherTracker,2013-09-06 14:20:00,
2013-09-06 09:25:00,80.3,74.3,30.08,North,9,0.0,0.0,82,0.00,,,0.00,WeatherTracker,2013-09-06 14:25:00,
2013-09-06 09:30:00,81.1,74.7,30.08,NNE,20,0.0,1.0,81,0.00,,,0.00,WeatherTracker,2013-09-06 14:30:00,
2013-09-06 09:40:00,82.3,74.0,30.08,NNE,19,0.0,1.0,76,0.00,,,0.00,WeatherTracker,2013-09-06 14:40:00,
2013-09-06 09:45:00,82.6,73.8,30.08,NNE,20,0.0,0.0,75,0.00,,,0.00,WeatherTracker,2013-09-06 14:45:00,
2013-09-06 09:55:00,83.3,74.5,30.09,NNE,20,0.0,0.0,75,0.00,,,0.00,WeatherTracker,2013-09-06 14:55:00,
2013-09-06 10:05:00,83.9,73.9,30.09,NNE,20,0.0,0.0,72,0.00,,,0.00,WeatherTracker,2013-09-06 15:05:00,
2013-09-06 10:15:00,84.3,73.4,30.09,NNE,30,0.0,0.0,70,0.00,,,0.00,WeatherTracker,2013-09-06 15:15:00,
2013-09-06 10:20:00,84.5,73.6,30.09,NNE,22,0.0,2.0,70,0.00,,,0.00,WeatherTracker,2013-09-06 15:20:00,
2013-09-06 10:25:00,85.0,74.1,30.09,NNE,22,0.0,2.0,70,0.00,,,0.00,WeatherTracker,2013-09-06 15:25:00,
2013-09-06 10:30:00,85.0,72.8,30.09,NNE,32,0.0,1.0,67,0.00,,,0.00,WeatherTracker,2013-09-06 15:30:00,
2013-09-06 10:40:00,85.6,74.2,30.08,NNE,13,0.0,2.0,69,0.00,,,0.00,WeatherTracker,2013-09-06 15:40:00,
2013-09-06 10:45:00,85.7,74.3,30.08,North,355,0.0,2.0,69,0.00,,,0.00,WeatherTracker,2013-09-06 15:45:00,
2013-09-06 10:50:00,86.0,73.3,30.08,NE,38,0.0,2.0,66,0.00,,,0.00,WeatherTracker,2013-09-06 15:50:00,
2013-09-06 10:55:00,86.3,73.6,30.08,North,350,0.0,1.0,66,0.00,,,0.00,WeatherTracker,2013-09-06 15:55:00,
2013-09-06 11:00:00,86.3,74.5,30.08,NE,34,0.0,0.0,68,0.00,,,0.00,WeatherTracker,2013-09-06 16:00:00,
2013-09-06 11:05:00,86.4,71.8,30.08,East,86,0.0,1.0,62,0.00,,,0.00,WeatherTracker,2013-09-06 16:05:00,
2013-09-06 11:10:00,86.4,72.8,30.08,East,85,0.0,1.0,64,0.00,,,0.00,WeatherTracker,2013-09-06 16:10:00,
2013-09-06 11:20:00,86.1,72.0,30.08,NNE,33,0.0,4.0,63,0.00,,,0.00,WeatherTracker,2013-09-06 16:20:00,
2013-09-06 11:25:00,85.8,72.2,30.07,NE,43,0.0,4.0,64,0.00,,,0.00,WeatherTracker,2013-09-06 16:25:00,
2013-09-06 11:30:00,85.6,72.5,30.07,NE,37,0.0,4.0,65,0.00,,,0.00,WeatherTracker,2013-09-06 16:30:00,
2013-09-06 11:40:00,85.6,72.5,30.07,NE,37,0.0,0.0,65,0.00,,,0.00,WeatherTracker,2013-09-06 16:40:00,
2013-09-06 11:50:00,85.6,73.8,30.07,NE,37,0.0,0.0,68,0.00,,,0.00,WeatherTracker,2013-09-06 16:50:00,
2013-09-06 11:55:00,86.1,72.9,30.07,NE,37,0.0,0.0,65,0.00,,,0.00,WeatherTracker,2013-09-06 16:55:00,
2013-09-06 12:05:00,86.0,74.2,30.07,NNE,18,0.0,0.0,68,0.00,,,0.00,WeatherTracker,2013-09-06 17:05:00,
2013-09-06 12:15:00,86.5,74.7,30.07,SW,214,0.0,3.0,68,0.00,,,0.00,WeatherTracker,2013-09-06 17:15:00,
2013-09-06 12:25:00,87.5,74.7,30.06,WSW,254,0.0,0.0,66,0.00,,,0.00,WeatherTracker,2013-09-06 17:25:00,
2013-09-06 12:35:00,86.6,74.3,30.06,NNW,344,0.0,0.0,67,0.00,,,0.00,WeatherTracker,2013-09-06 17:35:00,
2013-09-06 12:40:00,86.4,74.6,30.06,NW,307,0.0,1.0,68,0.00,,,0.00,WeatherTracker,2013-09-06 17:40:00,
2013-09-06 12:50:00,88.1,74.8,30.06,North,5,0.0,3.0,65,0.00,,,0.00,WeatherTracker,2013-09-06 17:50:00,
2013-09-06 12:55:00,88.3,75.0,30.06,North,5,0.0,3.0,65,0.00,,,0.00,WeatherTracker,2013-09-06 17:55:00,
2013-09-06 13:05:00,88.5,74.7,30.06,NE,34,0.0,3.0,64,0.00,,,0.00,WeatherTracker,2013-09-06 18:05:00,
2013-09-06 13:15:00,87.6,74.3,30.05,NNE,26,0.0,0.0,65,0.00,,,0.00,WeatherTracker,2013-09-06 18:15:00,
2013-09-06 13:20:00,87.5,73.8,30.05,NNE,26,0.0,0.0,64,0.00,,,0.00,WeatherTracker,2013-09-06 18:20:00,
2013-09-06 13:30:00,87.7,71.6,30.05,NNE,26,0.0,0.0,59,0.00,,,0.00,WeatherTracker,2013-09-06 18:30:00,
2013-09-06 13:35:00,88.6,72.4,30.05,NNE,26,0.0,0.0,59,0.00,,,0.00,WeatherTracker,2013-09-06 18:35:00,
2013-09-06 13:45:00,89.8,72.5,30.04,NNE,27,0.0,0.0,57,0.00,,,0.00,WeatherTracker,2013-09-06 18:45:00,
2013-09-06 13:50:00,90.0,71.6,30.04,North,360,0.0,2.0,55,0.00,,,0.00,WeatherTracker,2013-09-06 18:50:00,
2013-09-06 14:00:00,89.8,71.4,30.03,NE,38,0.0,1.0,55,0.00,,,0.00,WeatherTracker,2013-09-06 19:00:00,
2013-09-06 14:10:00,89.7,71.9,30.03,North,9,0.0,1.0,56,0.00,,,0.00,WeatherTracker,2013-09-06 19:10:00,
2013-09-06 14:15:00,89.7,72.9,30.03,NNW,347,0.0,1.0,58,0.00,,,0.00,WeatherTracker,2013-09-06 19:15:00,
2013-09-06 14:25:00,90.1,72.2,30.02,NE,40,0.0,4.0,56,0.00,,,0.00,WeatherTracker,2013-09-06 19:25:00,
2013-09-06 14:30:00,89.8,70.3,30.02,ENE,61,0.0,4.0,53,0.00,,,0.00,WeatherTracker,2013-09-06 19:30:00,
2013-09-06 14:40:00,89.9,73.1,30.02,North,355,0.0,1.0,58,0.00,,,0.00,WeatherTracker,2013-09-06 19:40:00,
2013-09-06 14:50:00,90.3,73.0,30.02,North,355,0.0,1.0,57,0.00,,,0.00,WeatherTracker,2013-09-06 19:50:00,
2013-09-06 15:00:00,89.9,73.6,30.01,ENE,63,0.0,3.0,59,0.00,,,0.00,WeatherTracker,2013-09-06 20:00:00,
2013-09-06 15:10:00,89.6,71.8,30.00,NE,52,0.0,0.0,56,0.00,,,0.00,WeatherTracker,2013-09-06 20:10:00,
2013-09-06 15:15:00,90.4,74.1,30.00,NNE,25,0.0,0.0,59,0.00,,,0.00,WeatherTracker,2013-09-06 20:15:00,
2013-09-06 15:25:00,89.9,74.1,30.00,NNE,32,3.0,5.0,60,0.00,,,0.00,WeatherTracker,2013-09-06 20:25:00,
2013-09-06 15:35:00,89.6,73.8,29.99,NNE,19,0.0,5.0,60,0.00,,,0.00,WeatherTracker,2013-09-06 20:35:00,
2013-09-06 15:40:00,89.5,74.2,29.99,NE,55,1.0,5.0,61,0.00,,,0.00,WeatherTracker,2013-09-06 20:40:00,
2013-09-06 15:45:00,89.3,72.5,29.99,NE,39,0.0,5.0,58,0.00,,,0.00,WeatherTracker,2013-09-06 20:45:00,
2013-09-06 15:55:00,89.1,73.4,29.99,NE,38,0.0,5.0,60,0.00,,,0.00,WeatherTracker,2013-09-06 20:55:00,
2013-09-06 16:00:00,89.0,73.8,29.99,NNW,348,0.0,6.0,61,0.00,,,0.00,WeatherTracker,2013-09-06 21:00:00,
2013-09-06 16:05:00,89.0,73.8,29.99,North,5,0.0,6.0,61,0.00,,,0.00,WeatherTracker,2013-09-06 21:05:00,
2013-09-06 16:10:00,88.5,72.8,29.99,NNE,12,0.0,1.0,60,0.00,,,0.00,WeatherTracker,2013-09-06 21:10:00,
2013-09-06 16:20:00,87.8,74.1,29.99,NNE,18,0.0,1.0,64,0.00,,,0.00,WeatherTracker,2013-09-06 21:20:00,
2013-09-06 16:30:00,87.5,74.3,29.99,NNE,18,0.0,0.0,65,0.00,,,0.00,WeatherTracker,2013-09-06 21:30:00,
2013-09-06 16:35:00,87.8,73.6,29.99,NNE,18,0.0,0.0,63,0.00,,,0.00,WeatherTracker,2013-09-06 21:35:00,
2013-09-06 16:45:00,88.0,72.3,29.99,North,5,0.0,1.0,60,0.00,,,0.00,WeatherTracker,2013-09-06 21:45:00,
2013-09-06 16:50:00,88.0,71.3,29.99,North,5,0.0,1.0,58,0.00,,,0.00,WeatherTracker,2013-09-06 21:50:00,
2013-09-06 16:55:00,88.0,72.3,29.99,North,5,0.0,0.0,60,0.00,,,0.00,WeatherTracker,2013-09-06 21:55:00,
2013-09-06 17:05:00,88.1,71.4,29.99,North,5,0.0,0.0,58,0.00,,,0.00,WeatherTracker,2013-09-06 22:05:00,
2013-09-06 17:10:00,88.0,71.3,29.99,North,5,0.0,0.0,58,0.00,,,0.00,WeatherTracker,2013-09-06 22:10:00,
2013-09-06 17:20:00,88.1,72.4,29.99,North,5,0.0,0.0,60,0.00,,,0.00,WeatherTracker,2013-09-06 22:20:00,
2013-09-06 17:30:00,88.3,71.1,29.99,North,5,0.0,0.0,57,0.00,,,0.00,WeatherTracker,2013-09-06 22:30:00,
2013-09-06 17:35:00,88.5,72.8,29.99,North,5,0.0,0.0,60,0.00,,,0.00,WeatherTracker,2013-09-06 22:35:00,
2013-09-06 17:45:00,88.9,71.1,29.99,North,5,0.0,0.0,56,0.00,,,0.00,WeatherTracker,2013-09-06 22:45:00,
2013-09-06 17:50:00,89.1,72.9,29.99,North,5,0.0,0.0,59,0.00,,,0.00,WeatherTracker,2013-09-06 22:50:00,
2013-09-06 18:00:00,89.1,72.4,29.99,North,5,0.0,0.0,58,0.00,,,0.00,WeatherTracker,2013-09-06 23:00:00,
2013-09-06 18:10:00,89.0,73.8,29.99,North,5,0.0,0.0,61,0.00,,,0.00,WeatherTracker,2013-09-06 23:10:00,
2013-09-06 18:20:00,88.6,73.4,29.99,North,5,0.0,0.0,61,0.00,,,0.00,WeatherTracker,2013-09-06 23:20:00,
2013-09-06 18:30:00,87.4,73.7,29.99,North,5,0.0,0.0,64,0.00,,,0.00,WeatherTracker,2013-09-06 23:30:00,
2013-09-06 18:35:00,87.0,74.2,29.99,North,5,0.0,0.0,66,0.00,,,0.00,WeatherTracker,2013-09-06 23:35:00,
2013-09-06 18:40:00,86.5,74.2,29.99,North,5,0.0,0.0,67,0.00,,,0.00,WeatherTracker,2013-09-06 23:40:00,
2013-09-06 18:50:00,85.1,73.8,29.99,North,5,0.0,0.0,69,0.00,,,0.00,WeatherTracker,2013-09-06 23:50:00,
2013-09-06 19:00:00,83.7,72.8,29.99,North,5,0.0,0.0,70,0.00,,,0.00,WeatherTracker,2013-09-07 00:00:00,
2013-09-06 19:10:00,82.4,72.9,29.99,North,5,0.0,0.0,73,0.00,,,0.00,WeatherTracker,2013-09-07 00:10:00,
2013-09-06 19:15:00,81.7,72.2,29.99,North,5,0.0,0.0,73,0.00,,,0.00,WeatherTracker,2013-09-07 00:15:00,
2013-09-06 19:25:00,80.7,72.0,29.99,North,5,0.0,0.0,75,0.00,,,0.00,WeatherTracker,2013-09-07 00:25:00,
2013-09-06 19:30:00,80.0,71.7,30.00,North,5,0.0,0.0,76,0.00,,,0.00,WeatherTracker,2013-09-07 00:30:00,
2013-09-06 19:35:00,79.5,71.6,30.00,North,5,0.0,0.0,77,0.00,,,0.00,WeatherTracker,2013-09-07 00:35:00,
2013-09-06 19:40:00,79.0,71.5,30.00,North,5,0.0,0.0,78,0.00,,,0.00,WeatherTracker,2013-09-07 00:40:00,
2013-09-06 19:45:00,78.5,71.4,30.00,North,5,0.0,0.0,79,0.00,,,0.00,WeatherTracker,2013-09-07 00:45:00,
2013-09-06 19:50:00,78.1,71.4,30.00,North,5,0.0,0.0,80,0.00,,,0.00,WeatherTracker,2013-09-07 00:50:00,
2013-09-06 19:55:00,77.8,71.8,30.00,North,5,0.0,0.0,82,0.00,,,0.00,WeatherTracker,2013-09-07 00:55:00,
2013-09-06 20:05:00,77.3,71.4,30.01,North,5,0.0,0.0,82,0.00,,,0.00,WeatherTracker,2013-09-07 01:05:00,
2013-09-06 20:15:00,76.8,71.2,30.01,North,5,0.0,0.0,83,0.00,,,0.00,WeatherTracker,2013-09-07 01:15:00,
2013-09-06 20:20:00,76.6,71.0,30.01,North,5,0.0,0.0,83,0.00,,,0.00,WeatherTracker,2013-09-07 01:20:00,
2013-09-06 20:30:00,76.2,71.0,30.01,North,5,0.0,0.0,84,0.00,,,0.00,WeatherTracker,2013-09-07 01:30:00,
2013-09-06 20:35:00,76.0,70.8,30.01,North,5,0.0,0.0,84,0.00,,,0.00,WeatherTracker,2013-09-07 01:35:00,
2013-09-06 20:40:00,75.8,70.6,30.02,North,5,0.0,0.0,84,0.00,,,0.00,WeatherTracker,2013-09-07 01:40:00,
2013-09-06 20:45:00,75.6,70.4,30.02,North,5,0.0,0.0,84,0.00,,,0.00,WeatherTracker,2013-09-07 01:45:00,
2013-09-06 20:50:00,75.4,70.6,30.02,North,5,0.0,0.0,85,0.00,,,0.00,WeatherTracker,2013-09-07 01:50:00,
2013-09-06 20:55:00,75.3,70.5,30.02,North,5,0.0,0.0,85,0.00,,,0.00,WeatherTracker,2013-09-07 01:55:00,
2013-09-06 21:05:00,74.9,70.4,30.02,North,5,0.0,0.0,86,0.00,,,0.00,WeatherTracker,2013-09-07 02:05:00,
2013-09-06 21:15:00,74.6,70.5,30.02,North,5,0.0,0.0,87,0.00,,,0.00,WeatherTracker,2013-09-07 02:15:00,
2013-09-06 21:25:00,74.3,70.5,30.02,North,5,0.0,0.0,88,0.00,,,0.00,WeatherTracker,2013-09-07 02:25:00,
2013-09-06 21:35:00,73.9,70.1,30.02,North,5,0.0,0.0,88,0.00,,,0.00,WeatherTracker,2013-09-07 02:35:00,
2013-09-06 21:40:00,73.7,69.9,30.01,North,5,0.0,0.0,88,0.00,,,0.00,WeatherTracker,2013-09-07 02:40:00,
2013-09-06 21:45:00,73.6,70.1,30.01,North,5,0.0,0.0,89,0.00,,,0.00,WeatherTracker,2013-09-07 02:45:00,
2013-09-06 21:55:00,73.4,70.3,30.01,North,5,0.0,0.0,90,0.00,,,0.00,WeatherTracker,2013-09-07 02:55:00,
2013-09-06 22:05:00,73.1,70.3,30.01,North,5,0.0,0.0,91,0.00,,,0.00,WeatherTracker,2013-09-07 03:05:00,
2013-09-06 22:15:00,73.0,70.2,30.01,North,5,0.0,0.0,91,0.00,,,0.00,WeatherTracker,2013-09-07 03:15:00,
2013-09-06 22:20:00,72.9,70.4,30.01,North,5,0.0,0.0,92,0.00,,,0.00,WeatherTracker,2013-09-07 03:20:00,
2013-09-06 22:25:00,72.8,70.3,30.01,North,5,0.0,0.0,92,0.00,,,0.00,WeatherTracker,2013-09-07 03:25:00,
2013-09-06 22:30:00,72.8,70.3,30.01,North,5,0.0,0.0,92,0.00,,,0.00,WeatherTracker,2013-09-07 03:30:00,
2013-09-06 22:40:00,72.6,70.1,30.01,North,5,0.0,0.0,92,0.00,,,0.00,WeatherTracker,2013-09-07 03:40:00,
2013-09-06 22:45:00,72.5,70.0,30.01,North,5,0.0,0.0,92,0.00,,,0.00,WeatherTracker,2013-09-07 03:45:00,
2013-09-06 22:55:00,72.3,69.8,30.01,North,5,0.0,0.0,92,0.00,,,0.00,WeatherTracker,2013-09-07 03:55:00,
2013-09-06 23:00:00,72.2,70.1,30.01,North,5,0.0,0.0,93,0.00,,,0.00,WeatherTracker,2013-09-07 04:00:00,
2013-09-06 23:05:00,72.1,70.0,30.01,North,5,0.0,0.0,93,0.00,,,0.00,WeatherTracker,2013-09-07 04:05:00,
2013-09-06 23:10:00,71.9,69.8,30.01,North,5,0.0,0.0,93,0.00,,,0.00,WeatherTracker,2013-09-07 04:10:00,
2013-09-06 23:15:00,71.9,69.8,30.01,North,5,0.0,0.0,93,0.00,,,0.00,WeatherTracker,2013-09-07 04:15:00,
2013-09-06 23:20:00,71.8,69.7,30.01,North,5,0.0,0.0,93,0.00,,,0.00,WeatherTracker,2013-09-07 04:20:00,
2013-09-06 23:25:00,71.7,69.6,30.01,North,5,0.0,0.0,93,0.00,,,0.00,WeatherTracker,2013-09-07 04:25:00,
2013-09-06 23:35:00,71.6,69.8,30.00,North,5,0.0,0.0,94,0.00,,,0.00,WeatherTracker,2013-09-07 04:35:00,
2013-09-06 23:40:00,71.6,69.8,30.00,North,5,0.0,0.0,94,0.00,,,0.00,WeatherTracker,2013-09-07 04:40:00,
2013-09-06 23:45:00,71.5,69.7,30.00,North,5,0.0,0.0,94,0.00,,,0.00,WeatherTracker,2013-09-07 04:45:00,
2013-09-06 23:50:00,71.5,69.7,30.00,North,5,0.0,0.0,94,0.00,,,0.00,WeatherTracker,2013-09-07 04:50:00,
2013-09-06 23:55:00,71.5,69.7,30.00,North,5,0.0,0.0,94,0.00,,,0.00,WeatherTracker,2013-09-07 04:55:00,